createdAt,value
2023-02-07T00:02:49.310Z,96.69
2023-02-07T00:07:49.201Z,96.33
2023-02-07T00:12:49.190Z,95.73
2023-02-07T00:17:49.176Z,95.46
2023-02-07T00:22:51.825Z,95.46
2023-02-07T00:27:49.273Z,95.67
2023-02-07T00:32:49.112Z,96.52
2023-02-07T00:37:49.107Z,96.20
2023-02-07T00:42:49.063Z,95.78
2023-02-07T00:47:49.056Z,95.82
2023-02-07T00:52:49.029Z,95.04
2023-02-07T00:57:49.024Z,94.98
2023-02-07T01:02:48.996Z,94.98
2023-02-07T01:07:49.007Z,94.23
2023-02-07T01:12:48.972Z,94.87
2023-02-07T01:17:48.971Z,93.96
2023-02-07T01:22:48.923Z,95.44
2023-02-07T01:27:48.944Z,94.49
2023-02-07T01:32:48.856Z,94.59
2023-02-07T01:37:48.835Z,94.02
2023-02-07T01:42:48.829Z,93.32
2023-02-07T01:47:48.818Z,93.85
2023-02-07T01:52:48.806Z,93.64
2023-02-07T01:57:48.789Z,92.83
2023-02-07T02:02:48.909Z,93.36
2023-02-07T02:07:48.693Z,93.57
2023-02-07T02:12:51.341Z,92.72
2023-02-07T02:17:48.670Z,92.66
2023-02-07T02:22:48.663Z,92.98
2023-02-07T02:27:48.687Z,93.34
2023-02-07T02:32:48.639Z,93.44
2023-02-07T02:37:48.619Z,93.23
2023-02-07T02:42:48.601Z,93.98
2023-02-07T02:47:48.599Z,92.70
2023-02-07T02:52:51.035Z,93.06
2023-02-07T02:57:48.560Z,93.27
2023-02-07T03:02:48.513Z,93.38
2023-02-07T03:07:48.517Z,92.85
2023-02-07T03:12:48.489Z,93.27
2023-02-07T03:17:48.486Z,92.32
2023-02-07T03:22:48.477Z,92.89
2023-02-07T03:27:48.494Z,92.53
2023-02-07T03:32:48.445Z,93.17
2023-02-07T03:37:48.451Z,92.96
2023-02-07T03:42:48.447Z,92.68
2023-02-07T03:47:48.406Z,92.43
2023-02-07T03:52:48.392Z,92.25
2023-02-07T03:57:48.362Z,93.04
2023-02-07T04:02:48.318Z,93.68
2023-02-07T04:07:48.277Z,93.74
2023-02-07T04:12:48.224Z,92.57
2023-02-07T04:17:48.217Z,93.63
2023-02-07T04:22:48.186Z,93.10
2023-02-07T04:27:48.181Z,93.00
2023-02-07T04:32:48.140Z,93.10
2023-02-07T04:37:48.132Z,92.89
2023-02-07T04:42:48.114Z,92.89
2023-02-07T04:47:48.093Z,91.94
2023-02-07T04:52:48.073Z,93.04
2023-02-07T04:57:48.071Z,93.00
2023-02-07T05:02:48.012Z,92.47
2023-02-07T05:07:47.996Z,92.89
2023-02-07T05:12:47.985Z,92.72
2023-02-07T05:17:47.986Z,92.47
2023-02-07T05:22:47.928Z,91.83
2023-02-07T05:27:47.978Z,92.25
2023-02-07T05:32:47.883Z,92.19
2023-02-07T05:37:47.883Z,92.36
2023-02-07T05:42:47.869Z,92.25
2023-02-07T05:47:47.866Z,91.97
2023-02-07T05:52:47.828Z,92.30
2023-02-07T05:57:47.809Z,92.08
2023-02-07T06:02:47.791Z,91.77
2023-02-07T06:07:47.724Z,92.51
2023-02-07T06:12:47.669Z,92.72
2023-02-07T06:17:47.661Z,91.66
2023-02-07T06:22:47.658Z,92.23
2023-02-07T06:27:47.679Z,92.40
2023-02-07T06:32:47.609Z,91.87
2023-02-07T06:37:47.603Z,91.97
2023-02-07T06:42:47.559Z,91.77
2023-02-07T06:47:47.579Z,91.66
2023-02-07T06:52:47.512Z,92.51
2023-02-07T06:57:47.505Z,92.14
2023-02-07T07:02:47.526Z,90.98
2023-02-07T07:15:53.270Z,92.30
2023-02-07T07:15:58.064Z,92.79
2023-02-07T07:20:58.028Z,92.11
2023-02-07T07:25:58.702Z,91.79
2023-02-07T07:31:02.584Z,92.17
2023-02-07T07:36:12.788Z,92.07
2023-02-07T07:40:58.024Z,92.60
2023-02-07T07:52:03.349Z,92.87
2023-02-07T07:52:08.140Z,92.79
2023-02-07T07:57:40.205Z,92.58
2023-02-07T08:02:08.065Z,92.75
2023-02-07T08:11:12.518Z,93.13
2023-02-07T08:12:08.036Z,93.19
2023-02-07T08:18:09.027Z,93.51
2023-02-07T08:23:11.370Z,94.42
2023-02-07T08:27:41.013Z,94.59
2023-02-07T08:32:10.726Z,95.29
2023-02-07T08:37:08.305Z,95.14
2023-02-07T08:42:17.466Z,95.35
2023-02-07T08:47:07.921Z,95.33
2023-02-07T08:52:07.811Z,94.65
2023-02-07T08:57:07.962Z,95.50
2023-02-07T09:02:09.313Z,95.26
2023-02-07T09:07:14.527Z,94.12
2023-02-07T11:27:06.944Z,93.80
2023-02-07T11:27:11.710Z,75.15
2023-02-07T11:32:13.312Z,76.06
2023-02-07T11:37:13.325Z,75.60
2023-02-07T11:42:13.358Z,73.69
2023-02-07T11:47:13.302Z,72.36
2023-02-07T11:55:10.320Z,70.34
2023-02-07T12:00:11.276Z,66.58
2023-02-07T12:05:07.028Z,69.23
2023-02-07T12:10:15.285Z,66.77
2023-02-07T12:15:08.690Z,65.55
2023-02-07T12:22:13.625Z,62.91
2023-02-07T14:39:30.354Z,63.22
2023-02-07T14:39:35.118Z,64.19
2023-02-07T14:44:38.714Z,64.09
2023-02-07T14:49:36.673Z,61.90
2023-02-07T14:54:35.170Z,60.12
2023-02-07T14:59:36.674Z,59.36
2023-02-07T15:17:07.203Z,59.88
2023-02-07T15:17:14.639Z,61.47
2023-02-07T15:22:25.508Z,61.08
2023-02-07T15:27:17.258Z,61.90
2023-02-07T15:34:18.713Z,63.18
2023-02-07T15:37:18.830Z,64.22
2023-02-07T15:42:18.832Z,65.68
2023-02-07T15:47:18.828Z,68.01
2023-02-07T15:52:18.913Z,68.74
2023-02-07T15:57:18.833Z,69.51
2023-02-07T16:02:15.236Z,70.58
2023-02-07T16:07:14.305Z,71.24
2023-02-07T16:12:14.307Z,73.02
2023-02-07T16:17:14.279Z,74.41
2023-02-07T16:22:14.241Z,75.95
2023-02-07T16:27:14.187Z,76.61
2023-02-07T16:32:14.175Z,76.09
2023-02-07T16:37:14.164Z,77.28
2023-02-07T16:42:14.163Z,78.74
2023-02-07T16:47:14.155Z,79.20
2023-02-07T16:52:14.163Z,78.78
2023-02-07T16:57:14.113Z,80.49
2023-02-07T17:02:14.139Z,80.85
2023-02-07T17:07:15.671Z,80.64
2023-02-07T17:12:14.055Z,80.43
2023-02-07T17:17:13.998Z,81.09
2023-02-07T17:22:13.953Z,81.30
2023-02-07T17:27:13.904Z,82.60
2023-02-07T17:32:13.922Z,82.50
2023-02-07T17:37:13.863Z,82.81
2023-02-07T17:42:13.852Z,82.64
2023-02-07T17:47:13.870Z,82.53
2023-02-07T17:52:13.769Z,82.85
2023-02-07T17:57:13.779Z,82.78
2023-02-07T18:02:13.680Z,83.52
2023-02-07T18:07:13.648Z,82.78
2023-02-07T18:12:13.633Z,82.78
2023-02-07T18:17:13.632Z,82.46
2023-02-07T18:22:13.579Z,82.43
2023-02-07T18:27:13.533Z,83.20
2023-02-07T18:32:13.539Z,83.31
2023-02-07T18:37:13.484Z,83.73
2023-02-07T18:42:13.485Z,83.62
2023-02-07T18:47:13.438Z,83.83
2023-02-07T18:52:13.433Z,83.45
2023-02-07T18:57:13.482Z,83.98
2023-02-07T19:02:13.488Z,85.03
2023-02-07T19:07:13.405Z,85.55
2023-02-07T19:12:13.686Z,86.44
2023-02-07T19:17:13.319Z,87.28
2023-02-07T19:22:14.195Z,87.55
2023-02-07T19:27:13.248Z,87.24
2023-02-07T19:32:13.238Z,87.87
2023-02-07T19:37:13.210Z,88.60
2023-02-07T19:42:13.204Z,88.92
2023-02-07T19:47:13.684Z,89.87
2023-02-07T19:52:13.139Z,89.76
2023-02-07T19:57:13.096Z,89.91
2023-02-07T20:02:13.036Z,90.55
2023-02-07T20:07:13.017Z,90.97
2023-02-07T20:12:13.019Z,90.33
2023-02-07T20:17:12.973Z,90.75
2023-02-07T20:22:12.962Z,91.11
2023-02-07T20:27:12.963Z,91.00
2023-02-07T20:32:13.019Z,91.11
2023-02-07T20:37:12.907Z,91.32
2023-02-07T20:42:12.894Z,91.11
2023-02-07T20:47:12.921Z,91.68
2023-02-07T20:52:12.809Z,91.78
2023-02-07T20:57:12.778Z,91.00
2023-02-07T21:02:12.808Z,91.47
2023-02-07T21:07:12.714Z,91.47
2023-02-07T21:12:12.671Z,91.36
2023-02-07T21:17:12.628Z,91.68
2023-02-07T21:22:12.612Z,91.61
2023-02-07T21:27:12.590Z,91.83
2023-02-07T21:32:12.552Z,91.93
2023-02-07T21:37:12.496Z,92.25
2023-02-07T21:42:12.504Z,92.29
2023-02-07T21:47:12.456Z,92.60
2023-02-07T21:52:12.492Z,92.92
2023-02-07T21:57:14.251Z,92.82
2023-02-07T22:02:12.472Z,92.82
2023-02-07T22:07:12.383Z,92.86
2023-02-07T22:12:12.387Z,92.76
2023-02-07T22:17:12.387Z,92.76
2023-02-07T22:22:12.337Z,92.69
2023-02-07T22:27:12.293Z,92.69
2023-02-07T22:32:12.292Z,92.73
2023-02-07T22:37:12.267Z,93.05
2023-02-07T22:42:12.211Z,93.19
2023-02-07T22:47:12.186Z,93.19
2023-02-07T22:52:12.233Z,93.24
2023-02-07T22:57:12.158Z,93.66
2023-02-07T23:02:12.203Z,94.65
2023-02-07T23:07:12.101Z,94.97
2023-02-07T23:12:12.057Z,94.93
2023-02-07T23:17:12.063Z,94.61
2023-02-07T23:22:11.994Z,94.09
2023-02-07T23:27:11.978Z,93.77
2023-02-07T23:32:11.960Z,93.34
2023-02-07T23:37:11.901Z,93.70
2023-02-07T23:42:11.851Z,93.91
2023-02-07T23:47:11.857Z,93.49
2023-02-07T23:52:11.822Z,93.49
2023-02-07T23:57:11.826Z,93.01
